Time;durP1;ratioP1;P1;durP2;ratioP2;P2;SDS_P1;SDS_P2;PMS_P1;PMS_P2;Temp;Humidity;BMP_temperature;BMP_pressure;BME280_temperature;BME280_humidity;BME280_pressure;Samples;Min_cycle;Max_cycle;Signal;HPM_P1;HPM_P2
2023/06/08 00:00:28;;;;;;;;;;;;;;;;;;5090836;28;19973;-60
2023/06/08 00:02:55;;;;;;;;;;;;;;;;;;5090190;28;19920;-59
2023/06/08 00:05:21;;;;;;;;;;;;;;;;;;5090775;28;20534;-59
2023/06/08 00:07:48;;;;;;;;;;;;;;;;;;5090782;28;19927;-60
2023/06/08 00:10:14;;;;;;;;;;;;;;;;;;5090261;28;19928;-58
2023/06/08 00:12:40;;;;;;;;;;;;;;;;;;5072324;28;19935;-59
2023/06/08 00:15:07;;;;;;;;;;;;;;;;;;5072310;28;19924;-59
2023/06/08 00:17:33;;;;;;;;;;;;;;;;;;5071824;28;20314;-60
2023/06/08 00:19:59;;;;;;;;;;;;;;;;;;5091091;28;19924;-59
2023/06/08 00:22:26;;;;;;;;;;;;;;;;;;5094833;28;19981;-59
2023/06/08 00:24:52;;;;;;;;;;;;;;;;;;5075936;28;19927;-60
2023/06/08 00:27:18;;;;;;;;;;;;;;;;;;5074688;28;20748;-59
2023/06/08 00:29:44;;;;;;;;;;;;;;;;;;5084023;28;20055;-59
2023/06/08 00:32:10;;;;;;;;;;;;;;;;;;5094005;28;19951;-60
2023/06/08 00:34:36;;;;;;;;;;;;;;;;;;5094222;28;20631;-59
2023/06/08 00:37:02;;;;;;;;;;;;;;;;;;5094414;28;19955;-59
2023/06/08 00:39:28;;;;;;;;;;;;;;;;;;5094013;28;19924;-58
2023/06/08 00:41:55;;;;;;;;;;;;;;;;;;5094431;28;19924;-59
2023/06/08 00:44:20;;;;;;;;;;;;;;;;;;5075940;28;20031;-59
2023/06/08 00:46:46;;;;;;;;;;;;;;;;;;5094116;28;20014;-59
2023/06/08 00:49:15;;;;;;;;;;;;;;;;;;5094319;28;19920;-60
2023/06/08 00:51:41;;;;;;;;;;;;;;;;;;5094238;28;19920;-59
2023/06/08 00:54:10;;;;;;;;;;;;;;;;;;5093634;28;20294;-59
2023/06/08 00:56:36;;;;;;;;;;;;;;;;;;5094178;28;20342;-59
2023/06/08 00:59:02;;;;;;;;;;;;;;;;;;5094024;28;19924;-59
2023/06/08 01:01:29;;;;;;;;;;;;;;;;;;5093703;28;20267;-59
2023/06/08 01:03:55;;;;;;;;;;;;;;;;;;5094100;28;20489;-59
2023/06/08 01:06:21;;;;;;;;;;;;;;;;;;5094170;28;19920;-59
2023/06/08 01:08:47;;;;;;;;;;;;;;;;;;5093421;28;19968;-59
2023/06/08 01:11:13;;;;;;;;;;;;;;;;;;5093909;28;20022;-59
2023/06/08 01:13:39;;;;;;;;;;;;;;;;;;5093424;28;19924;-59
2023/06/08 01:16:05;;;;;;;;;;;;;;;;;;5093345;28;19927;-59
2023/06/08 01:18:32;;;;;;;;;;;;;;;;;;5075555;28;19920;-60
2023/06/08 01:21:02;;;;;;;;;;;;;;;;;;5093953;28;19924;-60
2023/06/08 01:23:34;;;;;;;;;;;;;;;;;;5093313;28;19924;-60
2023/06/08 01:26:00;;;;;;;;;;;;;;;;;;5084453;28;19933;-60
2023/06/08 01:28:28;;;;;;;;;;;;;;;;;;5055173;28;19920;-60
2023/06/08 01:30:54;;;;;;;;;;;;;;;;;;5091084;28;19932;-60
2023/06/08 01:33:20;;;;;;;;;;;;;;;;;;5093295;28;20397;-60
2023/06/08 01:35:46;;;;;;;;;;;;;;;;;;5093449;28;19927;-60
2023/06/08 01:38:12;;;;;;;;;;;;;;;;;;5074608;28;20445;-59
2023/06/08 01:40:38;;;;;;;;;;;;;;;;;;5093330;28;19968;-60
2023/06/08 01:43:04;;;;;;;;;;;;;;;;;;5093093;28;19943;-59
2023/06/08 01:45:30;;;;;;;;;;;;;;;;;;5092827;28;19928;-60
2023/06/08 01:47:56;;;;;;;;;;;;;;;;;;5093113;28;19959;-60
2023/06/08 01:50:24;;;;;;;;;;;;;;;;;;5093011;28;19931;-60
2023/06/08 01:52:50;;;;;;;;;;;;;;;;;;5092162;28;19928;-60
2023/06/08 01:55:16;;;;;;;;;;;;;;;;;;5093276;28;19924;-60
2023/06/08 01:57:42;;;;;;;;;;;;;;;;;;5093048;28;19947;-59
2023/06/08 02:00:08;;;;;;;;;;;;;;;;;;5092421;28;19924;-59
2023/06/08 02:02:34;;;;;;;;;;;;;;;;;;5092629;28;19920;-60
2023/06/08 02:05:00;;;;;;;;;;;;;;;;;;5092747;28;19928;-60
2023/06/08 02:07:26;;;;;;;;;;;;;;;;;;5074257;28;20010;-60
2023/06/08 02:09:52;;;;;;;;;;;;;;;;;;5092998;28;19924;-60
2023/06/08 02:12:18;;;;;;;;;;;;;;;;;;5092765;28;19920;-60
2023/06/08 02:14:46;;;;;;;;;;;;;;;;;;5092121;28;19920;-60
2023/06/08 02:17:13;;;;;;;;;;;;;;;;;;5092599;28;20397;-60
2023/06/08 02:19:39;;;;;;;;;;;;;;;;;;5091774;28;19984;-60
2023/06/08 02:22:05;;;;;;;;;;;;;;;;;;5092335;28;19927;-60
2023/06/08 02:24:31;;;;;;;;;;;;;;;;;;5092163;28;19928;-60
2023/06/08 02:26:57;;;;;;;;;;;;;;;;;;5075718;28;19956;-60
2023/06/08 02:29:23;;;;;;;;;;;;;;;;;;5078644;28;20030;-60
2023/06/08 02:31:49;;;;;;;;;;;;;;;;;;5091967;28;20042;-60
2023/06/08 02:34:15;;;;;;;;;;;;;;;;;;5091915;28;19920;-60
2023/06/08 02:36:42;;;;;;;;;;;;;;;;;;5092325;28;19927;-60
2023/06/08 02:39:08;;;;;;;;;;;;;;;;;;5091808;28;20030;-59
2023/06/08 02:41:34;;;;;;;;;;;;;;;;;;5092278;28;20018;-60
2023/06/08 02:43:59;;;;;;;;;;;;;;;;;;5091232;28;19955;-60
2023/06/08 02:46:25;;;;;;;;;;;;;;;;;;5091693;28;19923;-60
2023/06/08 02:48:52;;;;;;;;;;;;;;;;;;5092106;28;19920;-59
2023/06/08 02:51:19;;;;;;;;;;;;;;;;;;5091943;28;20044;-59
2023/06/08 02:53:45;;;;;;;;;;;;;;;;;;5091216;28;19924;-60
2023/06/08 02:56:12;;;;;;;;;;;;;;;;;;5091932;28;20452;-60
2023/06/08 02:58:41;;;;;;;;;;;;;;;;;;5091517;28;19967;-60
2023/06/08 03:01:14;;;;;;;;;;;;;;;;;;5091441;28;20286;-60
2023/06/08 03:03:40;;;;;;;;;;;;;;;;;;5073379;28;19928;-60
2023/06/08 03:06:07;;;;;;;;;;;;;;;;;;5091762;28;19989;-60
2023/06/08 03:08:33;;;;;;;;;;;;;;;;;;5091105;28;20568;-60
2023/06/08 03:10:59;;;;;;;;;;;;;;;;;;5091679;28;20015;-59
2023/06/08 03:13:25;;;;;;;;;;;;;;;;;;5091515;28;19974;-60
2023/06/08 03:15:52;;;;;;;;;;;;;;;;;;5091172;28;19963;-60
2023/06/08 03:18:18;;;;;;;;;;;;;;;;;;5091293;28;19923;-60
2023/06/08 03:20:47;;;;;;;;;;;;;;;;;;5091442;28;20371;-59
2023/06/08 03:23:13;;;;;;;;;;;;;;;;;;5090811;28;20308;-59
2023/06/08 03:25:39;;;;;;;;;;;;;;;;;;5084851;28;19928;-60
2023/06/08 03:28:05;;;;;;;;;;;;;;;;;;5070841;28;19924;-60
2023/06/08 03:30:31;;;;;;;;;;;;;;;;;;5086571;28;20137;-60
2023/06/08 03:32:57;;;;;;;;;;;;;;;;;;5091109;28;19920;-60
2023/06/08 03:35:25;;;;;;;;;;;;;;;;;;5090676;28;20473;-59
2023/06/08 03:37:51;;;;;;;;;;;;;;;;;;5090626;28;19950;-60
2023/06/08 03:40:17;;;;;;;;;;;;;;;;;;5091069;28;19924;-60
2023/06/08 03:42:43;;;;;;;;;;;;;;;;;;5090999;28;20038;-60
2023/06/08 03:45:08;;;;;;;;;;;;;;;;;;5090510;28;20019;-59
2023/06/08 03:47:34;;;;;;;;;;;;;;;;;;5091112;28;19920;-59
2023/06/08 03:50:01;;;;;;;;;;;;;;;;;;5090991;28;19928;-60
2023/06/08 03:52:27;;;;;;;;;;;;;;;;;;5090450;28;19931;-60
2023/06/08 03:54:53;;;;;;;;;;;;;;;;;;5090682;28;19920;-59
2023/06/08 03:57:19;;;;;;;;;;;;;;;;;;5090819;28;19924;-59
2023/06/08 03:59:45;;;;;;;;;;;;;;;;;;5089991;28;19999;-59
2023/06/08 04:02:11;;;;;;;;;;;;;;;;;;5091025;28;19949;-60
2023/06/08 04:04:39;;;;;;;;;;;;;;;;;;5090812;28;19920;-60
2023/06/08 04:07:05;;;;;;;;;;;;;;;;;;5090474;28;19926;-60
2023/06/08 04:09:31;;;;;;;;;;;;;;;;;;5090729;28;19924;-60
2023/06/08 04:11:57;;;;;;;;;;;;;;;;;;5090774;28;20053;-60
2023/06/08 04:14:22;;;;;;;;;;;;;;;;;;5090016;28;19998;-60
2023/06/08 04:16:48;;;;;;;;;;;;;;;;;;5090762;28;19942;-59
2023/06/08 04:19:15;;;;;;;;;;;;;;;;;;5090663;28;19977;-59
2023/06/08 04:21:42;;;;;;;;;;;;;;;;;;5090582;28;20283;-59
2023/06/08 04:24:08;;;;;;;;;;;;;;;;;;5090539;28;19970;-60
2023/06/08 04:26:34;;;;;;;;;;;;;;;;;;5077230;28;19951;-59
2023/06/08 04:29:03;;;;;;;;;;;;;;;;;;5073628;28;20484;-59
2023/06/08 04:31:30;;;;;;;;;;;;;;;;;;5090664;28;19920;-60
2023/06/08 04:33:56;;;;;;;;;;;;;;;;;;5090780;28;19946;-60
2023/06/08 04:36:22;;;;;;;;;;;;;;;;;;5090349;28;19967;-60
2023/06/08 04:38:48;;;;;;;;;;;;;;;;;;5090711;28;19926;-59
2023/06/08 04:41:14;;;;;;;;;;;;;;;;;;5090737;28;19962;-60
2023/06/08 04:43:44;;;;;;;;;;;;;;;;;;5089959;28;19969;-60
2023/06/08 04:46:10;;;;;;;;;;;;;;;;;;5090497;28;19931;-60
2023/06/08 04:48:37;;;;;;;;;;;;;;;;;;5090789;28;19920;-60
2023/06/08 04:51:09;;;;;;;;;;;;;;;;;;5090102;28;20290;-60
2023/06/08 04:53:35;;;;;;;;;;;;;;;;;;5083301;28;20539;-58
2023/06/08 04:56:02;;;;;;;;;;;;;;;;;;5082756;28;19924;-60
2023/06/08 04:58:28;;;;;;;;;;;;;;;;;;5059238;28;19924;-59
2023/06/08 05:00:54;;;;;;;;;;;;;;;;;;5063412;28;20275;-59
2023/06/08 05:03:20;;;;;;;;;;;;;;;;;;5062449;28;19928;-59
2023/06/08 05:05:46;;;;;;;;;;;;;;;;;;5062410;28;20013;-59
2023/06/08 05:08:12;;;;;;;;;;;;;;;;;;5067034;28;19920;-59
2023/06/08 05:10:38;;;;;;;;;;;;;;;;;;5066102;28;19924;-59
2023/06/08 05:13:04;;;;;;;;;;;;;;;;;;5044720;28;19924;-60
2023/06/08 05:15:30;;;;;;;;;;;;;;;;;;5066518;28;20042;-59
2023/06/08 05:17:57;;;;;;;;;;;;;;;;;;5066893;28;19932;-60
2023/06/08 05:20:23;;;;;;;;;;;;;;;;;;5067315;28;19936;-59
2023/06/08 05:22:48;;;;;;;;;;;;;;;;;;5067449;28;20283;-59
2023/06/08 05:25:14;;;;;;;;;;;;;;;;;;5066213;28;19981;-60
2023/06/08 05:27:40;;;;;;;;;;;;;;;;;;5047848;28;19928;-59
2023/06/08 05:30:06;;;;;;;;;;;;;;;;;;5065805;28;19947;-60
2023/06/08 05:32:32;;;;;;;;;;;;;;;;;;5066867;28;19925;-59
2023/06/08 05:35:00;;;;;;;;;;;;;;;;;;5065535;28;19928;-59
2023/06/08 05:37:26;;;;;;;;;;;;;;;;;;5065380;28;20428;-58
2023/06/08 05:39:52;;;;;;;;;;;;;;;;;;5066459;28;20023;-59
2023/06/08 05:42:18;;;;;;;;;;;;;;;;;;5064945;28;19933;-59
2023/06/08 05:44:43;;;;;;;;;;;;;;;;;;5064958;28;19929;-59
2023/06/08 05:47:10;;;;;;;;;;;;;;;;;;5065145;28;19928;-59
2023/06/08 05:49:36;;;;;;;;;;;;;;;;;;5064844;28;19978;-58
2023/06/08 05:52:02;;;;;;;;;;;;;;;;;;5065638;28;19964;-59
2023/06/08 05:54:28;;;;;;;;;;;;;;;;;;5064449;28;19971;-59
2023/06/08 05:56:54;;;;;;;;;;;;;;;;;;5066032;28;20354;-59
2023/06/08 05:59:20;;;;;;;;;;;;;;;;;;5069574;28;19928;-58
2023/06/08 06:01:47;;;;;;;;;;;;;;;;;;5066170;28;19924;-59
2023/06/08 06:04:13;;;;;;;;;;;;;;;;;;5064078;28;19925;-59
2023/06/08 06:06:39;;;;;;;;;;;;;;;;;;5065721;28;19929;-60
2023/06/08 06:09:05;;;;;;;;;;;;;;;;;;5065133;28;19932;-59
2023/06/08 06:11:31;;;;;;;;;;;;;;;;;;5065981;28;19928;-59
2023/06/08 06:13:57;;;;;;;;;;;;;;;;;;5064616;28;19925;-59
2023/06/08 06:16:23;;;;;;;;;;;;;;;;;;5065729;28;19924;-59
2023/06/08 06:18:50;;;;;;;;;;;;;;;;;;5064103;28;19967;-58
2023/06/08 06:21:16;;;;;;;;;;;;;;;;;;5063910;28;19993;-59
2023/06/08 06:23:42;;;;;;;;;;;;;;;;;;5064652;28;19920;-59
2023/06/08 06:26:08;;;;;;;;;;;;;;;;;;5064442;28;20035;-60
2023/06/08 06:28:34;;;;;;;;;;;;;;;;;;5064344;28;19989;-59
2023/06/08 06:31:00;;;;;;;;;;;;;;;;;;5064891;28;19928;-59
2023/06/08 06:33:26;;;;;;;;;;;;;;;;;;5064857;28;20464;-59
2023/06/08 06:35:53;;;;;;;;;;;;;;;;;;5063821;28;19924;-58
2023/06/08 06:38:20;;;;;;;;;;;;;;;;;;5064478;28;20006;-59
2023/06/08 06:40:49;;;;;;;;;;;;;;;;;;5046903;28;19928;-59
2023/06/08 06:43:15;;;;;;;;;;;;;;;;;;5064364;28;20108;-60
2023/06/08 06:45:41;;;;;;;;;;;;;;;;;;5063766;28;20054;-60
2023/06/08 06:48:07;;;;;;;;;;;;;;;;;;5064217;28;19930;-59
2023/06/08 06:50:33;;;;;;;;;;;;;;;;;;5064190;28;19928;-60
2023/06/08 06:52:59;;;;;;;;;;;;;;;;;;5063816;28;19924;-59
2023/06/08 06:55:25;;;;;;;;;;;;;;;;;;5063147;28;19998;-60
2023/06/08 06:57:52;;;;;;;;;;;;;;;;;;5064653;28;19928;-60
2023/06/08 07:00:19;;;;;;;;;;;;;;;;;;5064585;28;19935;-60
2023/06/08 07:02:45;;;;;;;;;;;;;;;;;;5047303;28;19921;-60
2023/06/08 07:05:11;;;;;;;;;;;;;;;;;;5065365;28;19935;-60
2023/06/08 07:07:37;;;;;;;;;;;;;;;;;;5063710;28;19982;-61
2023/06/08 07:10:03;;;;;;;;;;;;;;;;;;5062646;28;20022;-61
2023/06/08 07:12:32;;;;;;;;;;;;;;;;;;5065070;28;19982;-60
2023/06/08 07:14:58;;;;;;;;;;;;;;;;;;5064219;28;19927;-61
2023/06/08 07:17:24;;;;;;;;;;;;;;;;;;5044968;28;20386;-61
2023/06/08 07:19:52;;;;;;;;;;;;;;;;;;5062505;28;19939;-61
2023/06/08 07:22:18;;;;;;;;;;;;;;;;;;5063682;28;19921;-61
2023/06/08 07:24:44;;;;;;;;;;;;;;;;;;5065777;28;19938;-60
2023/06/08 07:27:10;;;;;;;;;;;;;;;;;;5061960;28;19928;-61
2023/06/08 07:29:36;;;;;;;;;;;;;;;;;;5063819;28;20421;-61
2023/06/08 07:32:02;;;;;;;;;;;;;;;;;;5062939;28;19924;-61
2023/06/08 07:34:28;;;;;;;;;;;;;;;;;;5063427;28;19935;-61
2023/06/08 07:36:55;;;;;;;;;;;;;;;;;;5063715;28;19920;-61
2023/06/08 07:39:21;;;;;;;;;;;;;;;;;;5063223;28;19939;-61
2023/06/08 07:41:47;;;;;;;;;;;;;;;;;;5063634;28;19920;-61
2023/06/08 07:44:13;;;;;;;;;;;;;;;;;;5061646;28;19920;-59
2023/06/08 07:46:39;;;;;;;;;;;;;;;;;;5052450;28;20023;-59
2023/06/08 07:49:05;;;;;;;;;;;;;;;;;;5063005;28;19936;-60
2023/06/08 07:51:30;;;;;;;;;;;;;;;;;;5062322;28;19987;-58
2023/06/08 07:53:56;;;;;;;;;;;;;;;;;;5064418;28;19920;-60
2023/06/08 07:56:22;;;;;;;;;;;;;;;;;;5059308;28;19929;-60
2023/06/08 07:58:48;;;;;;;;;;;;;;;;;;5057023;28;20002;-60
2023/06/08 08:01:16;;;;;;;;;;;;;;;;;;5062700;28;19934;-60
2023/06/08 08:03:42;;;;;;;;;;;;;;;;;;5061861;28;19981;-60
2023/06/08 08:06:08;;;;;;;;;;;;;;;;;;5063560;28;20389;-60
2023/06/08 08:08:34;;;;;;;;;;;;;;;;;;5063375;28;19924;-60
2023/06/08 08:11:00;;;;;;;;;;;;;;;;;;5062297;28;20081;-60
2023/06/08 08:13:26;;;;;;;;;;;;;;;;;;5063033;28;19937;-60
2023/06/08 08:15:52;;;;;;;;;;;;;;;;;;5063910;28;19924;-60
2023/06/08 08:18:18;;;;;;;;;;;;;;;;;;5062499;28;19920;-60
2023/06/08 08:20:44;;;;;;;;;;;;;;;;;;5061987;28;19931;-59
2023/06/08 08:23:10;;;;;;;;;;;;;;;;;;5062174;28;19974;-59
2023/06/08 08:25:36;;;;;;;;;;;;;;;;;;5062279;28;20419;-60
2023/06/08 08:28:02;;;;;;;;;;;;;;;;;;5063223;28;19979;-60
2023/06/08 08:30:28;;;;;;;;;;;;;;;;;;5059459;28;19924;-60
2023/06/08 08:32:55;;;;;;;;;;;;;;;;;;5062234;28;19924;-60
2023/06/08 08:35:24;;;;;;;;;;;;;;;;;;5062397;28;20058;-60
2023/06/08 08:37:50;;;;;;;;;;;;;;;;;;5064290;28;19956;-60
2023/06/08 08:40:16;;;;;;;;;;;;;;;;;;5061921;28;19932;-60
2023/06/08 08:42:42;;;;;;;;;;;;;;;;;;5047667;28;19994;-60
2023/06/08 08:45:08;;;;;;;;;;;;;;;;;;5066930;28;19932;-60
2023/06/08 08:47:35;;;;;;;;;;;;;;;;;;5062661;28;19975;-60
2023/06/08 08:50:06;;;;;;;;;;;;;;;;;;5068007;28;19924;-60
2023/06/08 08:52:33;;;;;;;;;;;;;;;;;;5066308;28;20383;-60
2023/06/08 08:55:00;;;;;;;;;;;;;;;;;;5063553;28;19929;-60
2023/06/08 08:57:30;;;;;;;;;;;;;;;;;;5068116;28;20395;-60
2023/06/08 08:59:56;;;;;;;;;;;;;;;;;;5066557;28;19939;-60
2023/06/08 09:02:22;;;;;;;;;;;;;;;;;;5065834;28;20351;-60
2023/06/08 09:04:48;;;;;;;;;;;;;;;;;;5063252;28;19927;-59
2023/06/08 09:07:14;;;;;;;;;;;;;;;;;;5067231;28;19928;-60
2023/06/08 09:09:40;;;;;;;;;;;;;;;;;;5065855;28;19932;-59
2023/06/08 09:12:06;;;;;;;;;;;;;;;;;;5057625;28;19928;-60
2023/06/08 09:14:32;;;;;;;;;;;;;;;;;;5067333;28;20620;-60
2023/06/08 09:17:01;;;;;;;;;;;;;;;;;;5065285;28;20015;-60
2023/06/08 09:19:28;;;;;;;;;;;;;;;;;;5062039;28;20055;-60
2023/06/08 09:21:54;;;;;;;;;;;;;;;;;;5065503;28;19993;-61
2023/06/08 09:24:22;;;;;;;;;;;;;;;;;;5065575;28;20417;-60
2023/06/08 09:26:48;;;;;;;;;;;;;;;;;;5065345;28;20007;-60
2023/06/08 09:29:14;;;;;;;;;;;;;;;;;;5066405;28;19974;-60
2023/06/08 09:31:40;;;;;;;;;;;;;;;;;;5067003;28;19940;-59
2023/06/08 09:34:06;;;;;;;;;;;;;;;;;;5066091;28;19971;-59
2023/06/08 09:36:36;;;;;;;;;;;;;;;;;;5060688;28;19979;-60
2023/06/08 09:39:03;;;;;;;;;;;;;;;;;;5066227;28;20336;-60
2023/06/08 09:41:29;;;;;;;;;;;;;;;;;;5061346;28;20029;-59
2023/06/08 09:43:55;;;;;;;;;;;;;;;;;;5065316;28;19924;-60
2023/06/08 09:46:21;;;;;;;;;;;;;;;;;;5061180;28;20039;-60
2023/06/08 09:48:47;;;;;;;;;;;;;;;;;;5047679;28;19924;-60
2023/06/08 09:51:13;;;;;;;;;;;;;;;;;;5065520;28;19928;-60
2023/06/08 09:53:39;;;;;;;;;;;;;;;;;;5063906;28;20595;-60
2023/06/08 09:56:05;;;;;;;;;;;;;;;;;;5064910;28;19929;-60
2023/06/08 09:58:31;;;;;;;;;;;;;;;;;;5064848;28;19993;-60
2023/06/08 10:00:58;;;;;;;;;;;;;;;;;;5064831;28;19997;-60
2023/06/08 10:03:27;;;;;;;;;;;;;;;;;;5065309;28;19964;-60
2023/06/08 10:05:53;;;;;;;;;;;;;;;;;;5066366;28;19924;-60
2023/06/08 10:08:19;;;;;;;;;;;;;;;;;;5063823;28;19929;-60
2023/06/08 10:10:45;;;;;;;;;;;;;;;;;;5061798;28;19920;-60
2023/06/08 10:13:11;;;;;;;;;;;;;;;;;;5064384;28;19928;-60
2023/06/08 10:15:37;;;;;;;;;;;;;;;;;;5064709;28;19958;-60
2023/06/08 10:18:03;;;;;;;;;;;;;;;;;;5066311;28;19928;-60
2023/06/08 10:20:29;;;;;;;;;;;;;;;;;;5045457;28;19963;-60
2023/06/08 10:22:56;;;;;;;;;;;;;;;;;;5064890;28;19923;-60
2023/06/08 10:25:22;;;;;;;;;;;;;;;;;;5063783;28;20447;-60
2023/06/08 10:27:48;;;;;;;;;;;;;;;;;;5064795;28;19928;-60
2023/06/08 10:30:14;;;;;;;;;;;;;;;;;;5063561;28;19931;-59
2023/06/08 10:32:42;;;;;;;;;;;;;;;;;;5063067;28;20264;-59
2023/06/08 10:35:08;;;;;;;;;;;;;;;;;;5060381;28;20279;-60
2023/06/08 10:37:34;;;;;;;;;;;;;;;;;;5064434;28;19928;-60
2023/06/08 10:40:00;;;;;;;;;;;;;;;;;;5045456;28;19932;-60
2023/06/08 10:42:26;;;;;;;;;;;;;;;;;;5059422;28;19924;-60
2023/06/08 10:44:52;;;;;;;;;;;;;;;;;;5060595;28;20001;-60
2023/06/08 10:47:18;;;;;;;;;;;;;;;;;;5061387;28;19959;-60
2023/06/08 10:49:44;;;;;;;;;;;;;;;;;;5060169;28;19986;-60
2023/06/08 10:52:10;;;;;;;;;;;;;;;;;;5058830;28;19927;-60
2023/06/08 10:54:36;;;;;;;;;;;;;;;;;;5064609;28;19932;-60
2023/06/08 10:57:02;;;;;;;;;;;;;;;;;;5064685;28;20007;-60
2023/06/08 10:59:28;;;;;;;;;;;;;;;;;;5060907;28;19999;-60
2023/06/08 11:01:54;;;;;;;;;;;;;;;;;;5058826;28;19935;-60
2023/06/08 11:04:20;;;;;;;;;;;;;;;;;;5054248;28;19929;-60
2023/06/08 11:06:46;;;;;;;;;;;;;;;;;;5064038;28;19920;-60
2023/06/08 11:09:12;;;;;;;;;;;;;;;;;;5063812;28;20079;-60
2023/06/08 11:11:38;;;;;;;;;;;;;;;;;;5060120;28;19930;-60
2023/06/08 11:14:04;;;;;;;;;;;;;;;;;;5064090;28;19928;-60
2023/06/08 11:16:30;;;;;;;;;;;;;;;;;;5063933;28;19974;-60
2023/06/08 11:18:56;;;;;;;;;;;;;;;;;;5063581;28;19928;-61
2023/06/08 11:21:23;;;;;;;;;;;;;;;;;;5048025;28;20329;-60
2023/06/08 11:23:49;;;;;;;;;;;;;;;;;;5062499;28;19946;-60
2023/06/08 11:26:16;;;;;;;;;;;;;;;;;;5065174;28;19933;-60
2023/06/08 11:28:42;;;;;;;;;;;;;;;;;;5065875;28;20045;-60
2023/06/08 11:31:09;;;;;;;;;;;;;;;;;;5062415;28;20037;-60
2023/06/08 11:33:36;;;;;;;;;;;;;;;;;;5062760;28;19920;-60
2023/06/08 11:36:02;;;;;;;;;;;;;;;;;;5064502;28;20306;-60
2023/06/08 11:38:28;;;;;;;;;;;;;;;;;;5062765;28;20272;-60
2023/06/08 11:40:54;;;;;;;;;;;;;;;;;;5052454;28;19928;-60
2023/06/08 11:43:20;;;;;;;;;;;;;;;;;;5062752;28;19920;-59
2023/06/08 11:45:45;;;;;;;;;;;;;;;;;;5061647;28;19928;-60
2023/06/08 11:48:11;;;;;;;;;;;;;;;;;;5063108;28;19997;-60
2023/06/08 11:50:37;;;;;;;;;;;;;;;;;;5062133;28;19927;-61
2023/06/08 11:53:03;;;;;;;;;;;;;;;;;;5062400;28;19932;-60
2023/06/08 11:55:31;;;;;;;;;;;;;;;;;;5061753;28;19977;-60
2023/06/08 11:57:57;;;;;;;;;;;;;;;;;;5063100;28;19921;-60
2023/06/08 12:00:23;;;;;;;;;;;;;;;;;;5062323;28;20027;-60
2023/06/08 12:02:49;;;;;;;;;;;;;;;;;;5063446;28;20015;-60
2023/06/08 12:05:18;;;;;;;;;;;;;;;;;;5062972;28;19974;-60
2023/06/08 12:07:44;;;;;;;;;;;;;;;;;;5064131;28;19924;-60
2023/06/08 12:10:09;;;;;;;;;;;;;;;;;;5064906;28;19920;-60
2023/06/08 12:12:35;;;;;;;;;;;;;;;;;;5062425;28;20015;-60
2023/06/08 12:15:03;;;;;;;;;;;;;;;;;;5063144;28;19928;-60
2023/06/08 12:17:29;;;;;;;;;;;;;;;;;;5062896;28;20391;-61
2023/06/08 12:19:55;;;;;;;;;;;;;;;;;;5062111;28;20299;-61
2023/06/08 12:22:21;;;;;;;;;;;;;;;;;;5061628;28;19942;-60
2023/06/08 12:24:47;;;;;;;;;;;;;;;;;;5062491;28;19982;-61
2023/06/08 12:27:13;;;;;;;;;;;;;;;;;;5062880;28;19923;-61
2023/06/08 12:29:39;;;;;;;;;;;;;;;;;;5062445;28;19927;-61
2023/06/08 12:32:05;;;;;;;;;;;;;;;;;;5062073;28;19982;-61
2023/06/08 12:34:31;;;;;;;;;;;;;;;;;;5062558;28;19964;-61
2023/06/08 12:36:57;;;;;;;;;;;;;;;;;;5063327;28;19920;-61
2023/06/08 12:39:23;;;;;;;;;;;;;;;;;;5061919;28;19924;-61
2023/06/08 12:41:49;;;;;;;;;;;;;;;;;;5062968;28;19967;-61
2023/06/08 12:44:15;;;;;;;;;;;;;;;;;;5062818;28;20005;-61
2023/06/08 12:46:41;;;;;;;;;;;;;;;;;;5063031;28;19925;-61
2023/06/08 12:49:07;;;;;;;;;;;;;;;;;;5062505;28;19925;-61
2023/06/08 12:51:33;;;;;;;;;;;;;;;;;;5062845;28;19943;-61
2023/06/08 12:53:59;;;;;;;;;;;;;;;;;;5062834;28;19963;-61
2023/06/08 12:56:24;;;;;;;;;;;;;;;;;;5062805;28;19920;-61
2023/06/08 12:58:50;;;;;;;;;;;;;;;;;;5053028;28;19974;-61
2023/06/08 13:01:17;;;;;;;;;;;;;;;;;;5062749;28;19932;-61
2023/06/08 13:03:43;;;;;;;;;;;;;;;;;;5044856;28;19920;-61
2023/06/08 13:06:09;;;;;;;;;;;;;;;;;;5063220;28;19954;-61
2023/06/08 13:08:35;;;;;;;;;;;;;;;;;;5061717;28;19972;-61
2023/06/08 13:11:01;;;;;;;;;;;;;;;;;;5062316;28;19939;-61
2023/06/08 13:13:27;;;;;;;;;;;;;;;;;;5061268;28;19925;-61
2023/06/08 13:15:54;;;;;;;;;;;;;;;;;;5071630;28;19920;-61
2023/06/08 13:18:20;;;;;;;;;;;;;;;;;;5089041;28;19932;-61
2023/06/08 13:20:46;;;;;;;;;;;;;;;;;;5088537;28;19928;-61
2023/06/08 13:23:12;;;;;;;;;;;;;;;;;;5089306;28;19924;-61
2023/06/08 13:25:38;;;;;;;;;;;;;;;;;;5089067;28;20393;-61
2023/06/08 13:28:06;;;;;;;;;;;;;;;;;;5086422;28;19924;-61
2023/06/08 13:30:32;;;;;;;;;;;;;;;;;;5084215;28;20343;-61
2023/06/08 13:32:59;;;;;;;;;;;;;;;;;;5087955;28;19927;-61
2023/06/08 13:35:25;;;;;;;;;;;;;;;;;;5092494;28;20294;-61
2023/06/08 13:37:52;;;;;;;;;;;;;;;;;;5091925;28;19928;-61
2023/06/08 13:40:18;;;;;;;;;;;;;;;;;;5092140;28;19924;-61
2023/06/08 13:42:44;;;;;;;;;;;;;;;;;;5074017;28;19931;-61
2023/06/08 13:45:10;;;;;;;;;;;;;;;;;;5092269;28;19920;-61
2023/06/08 13:47:37;;;;;;;;;;;;;;;;;;5091455;28;19920;-61
2023/06/08 13:50:03;;;;;;;;;;;;;;;;;;5086055;28;19927;-61
2023/06/08 13:52:29;;;;;;;;;;;;;;;;;;5091751;28;19920;-61
2023/06/08 13:54:55;;;;;;;;;;;;;;;;;;5092675;28;19930;-61
2023/06/08 13:57:21;;;;;;;;;;;;;;;;;;5074295;28;20340;-61
2023/06/08 13:59:47;;;;;;;;;;;;;;;;;;5083592;28;19928;-61
2023/06/08 14:02:13;;;;;;;;;;;;;;;;;;5092357;28;19924;-61
2023/06/08 14:04:39;;;;;;;;;;;;;;;;;;5092350;28;19924;-61
2023/06/08 14:07:05;;;;;;;;;;;;;;;;;;5091683;28;20015;-61
2023/06/08 14:09:31;;;;;;;;;;;;;;;;;;5069288;28;19931;-61
2023/06/08 14:11:57;;;;;;;;;;;;;;;;;;5091862;28;19998;-61
2023/06/08 14:14:23;;;;;;;;;;;;;;;;;;5091715;28;19920;-61
2023/06/08 14:16:49;;;;;;;;;;;;;;;;;;5092352;28;19924;-61
2023/06/08 14:19:15;;;;;;;;;;;;;;;;;;5092107;28;19924;-61
2023/06/08 14:21:41;;;;;;;;;;;;;;;;;;5090741;28;19930;-61
2023/06/08 14:24:07;;;;;;;;;;;;;;;;;;5086608;28;19924;-61
2023/06/08 14:26:33;;;;;;;;;;;;;;;;;;5086594;28;20001;-61
2023/06/08 14:28:59;;;;;;;;;;;;;;;;;;5090971;28;20499;-61
2023/06/08 14:31:25;;;;;;;;;;;;;;;;;;5092013;28;19920;-61
2023/06/08 14:33:51;;;;;;;;;;;;;;;;;;5073346;28;19931;-61
2023/06/08 14:36:17;;;;;;;;;;;;;;;;;;5091518;28;19946;-62
2023/06/08 14:38:43;;;;;;;;;;;;;;;;;;5090978;28;20011;-61
2023/06/08 14:41:09;;;;;;;;;;;;;;;;;;5087206;28;20028;-61
2023/06/08 14:43:35;;;;;;;;;;;;;;;;;;5091717;28;19931;-62
2023/06/08 14:46:01;;;;;;;;;;;;;;;;;;5092192;28;19964;-62
2023/06/08 14:48:27;;;;;;;;;;;;;;;;;;5074110;28;19927;-62
2023/06/08 14:50:53;;;;;;;;;;;;;;;;;;5091634;28;20017;-63
2023/06/08 14:53:20;;;;;;;;;;;;;;;;;;5073566;28;20015;-63
2023/06/08 14:55:46;;;;;;;;;;;;;;;;;;5073777;28;19920;-63
2023/06/08 14:58:12;;;;;;;;;;;;;;;;;;5091116;28;20299;-63
2023/06/08 15:00:37;;;;;;;;;;;;;;;;;;5056921;28;19930;-62
2023/06/08 15:03:04;;;;;;;;;;;;;;;;;;5091792;28;19920;-63
2023/06/08 15:05:30;;;;;;;;;;;;;;;;;;5091342;28;20393;-63
2023/06/08 15:07:56;;;;;;;;;;;;;;;;;;5091811;28;19920;-63
2023/06/08 15:10:22;;;;;;;;;;;;;;;;;;5073370;28;19924;-63
2023/06/08 15:12:48;;;;;;;;;;;;;;;;;;5091181;28;19920;-63
2023/06/08 15:15:14;;;;;;;;;;;;;;;;;;5091668;28;20020;-63
2023/06/08 15:17:39;;;;;;;;;;;;;;;;;;5091771;28;19920;-63
2023/06/08 15:20:06;;;;;;;;;;;;;;;;;;5090975;28;19924;-63
2023/06/08 15:22:32;;;;;;;;;;;;;;;;;;5091347;28;19928;-63
2023/06/08 15:24:58;;;;;;;;;;;;;;;;;;5091011;28;20450;-63
2023/06/08 15:27:25;;;;;;;;;;;;;;;;;;5070747;28;20058;-63
2023/06/08 15:29:52;;;;;;;;;;;;;;;;;;5081462;28;19960;-63
2023/06/08 15:32:19;;;;;;;;;;;;;;;;;;5091382;28;19924;-63
2023/06/08 15:34:45;;;;;;;;;;;;;;;;;;5072281;28;20400;-63
2023/06/08 15:37:11;;;;;;;;;;;;;;;;;;5091291;28;20005;-63
2023/06/08 15:39:37;;;;;;;;;;;;;;;;;;5073199;28;19932;-63
2023/06/08 15:42:03;;;;;;;;;;;;;;;;;;5090823;28;19999;-63
2023/06/08 15:44:29;;;;;;;;;;;;;;;;;;5091242;28;19920;-63
2023/06/08 15:46:55;;;;;;;;;;;;;;;;;;5091229;28;19927;-63
2023/06/08 15:49:21;;;;;;;;;;;;;;;;;;5090787;28;19924;-63
2023/06/08 15:51:47;;;;;;;;;;;;;;;;;;5090897;28;19927;-63
2023/06/08 15:54:13;;;;;;;;;;;;;;;;;;5090843;28;19923;-63
2023/06/08 15:56:39;;;;;;;;;;;;;;;;;;5090567;28;19931;-63
2023/06/08 15:59:05;;;;;;;;;;;;;;;;;;5090979;28;19920;-63
2023/06/08 16:01:32;;;;;;;;;;;;;;;;;;5072655;28;19924;-63
2023/06/08 16:03:58;;;;;;;;;;;;;;;;;;5090440;28;19924;-63
2023/06/08 16:06:24;;;;;;;;;;;;;;;;;;5090796;28;20597;-63
2023/06/08 16:08:50;;;;;;;;;;;;;;;;;;5090889;28;19985;-63
2023/06/08 16:11:16;;;;;;;;;;;;;;;;;;5090500;28;19924;-63
2023/06/08 16:13:42;;;;;;;;;;;;;;;;;;5090704;28;19969;-63
2023/06/08 16:16:08;;;;;;;;;;;;;;;;;;5090776;28;19928;-63
2023/06/08 16:18:34;;;;;;;;;;;;;;;;;;5072240;28;19924;-63
2023/06/08 16:21:00;;;;;;;;;;;;;;;;;;5072695;28;19928;-63
2023/06/08 16:23:26;;;;;;;;;;;;;;;;;;5090194;28;19924;-63
2023/06/08 16:25:52;;;;;;;;;;;;;;;;;;5082132;28;20536;-63
2023/06/08 16:28:18;;;;;;;;;;;;;;;;;;5070587;28;19928;-63
2023/06/08 16:30:44;;;;;;;;;;;;;;;;;;5087728;28;19920;-63
2023/06/08 16:33:10;;;;;;;;;;;;;;;;;;5089890;28;19963;-63
2023/06/08 16:35:37;;;;;;;;;;;;;;;;;;5090534;28;20430;-63
2023/06/08 16:38:03;;;;;;;;;;;;;;;;;;5090435;28;19969;-63